Osoyoos, Canada
Current Conditions -  °F | °C
As of 2:00 PM on Sunday 25 Jan 2015 (Local Time) from CYYF Reporting Station
Broken Clouds Broken Clouds  
Wind Chill: 39°   Ceiling: 13000
Heat Index: 45°   Visibility: 15mi
Dew Point: 37°   Wind: 10mph
Humidity: 76%   Direction: 170°S
Pressure: 30.18"   Gusts: 20mph
Location:  49.03°N, 119.47°W
Report Text: CYYF 252200Z 17009G17KT 15SM FEW018 SCT070 BKN130 BKN230 07/03 A3018 RMK CF2AC1AC2CI2 SLP230
Loading
Personal Weather Stations






























Interactive Weather Map New forecast layout! Learn more

10-Day Weather Forecast

Advertisements
Track Severe Weather on mobile